Time;durP1;ratioP1;P1;durP2;ratioP2;P2;SDS_P1;SDS_P2;PMS_P1;PMS_P2;Temp;Humidity;BMP_temperature;BMP_pressure;BME280_temperature;BME280_humidity;BME280_pressure;Samples;Min_cycle;Max_cycle;Signal;HPM_P1;HPM_P2
2023/12/27 00:02:01;;;;;;;15.05;4.97;;;3.00;99.90;;;;;;5081248;28;20465;-45
2023/12/27 00:04:26;;;;;;;14.43;4.95;;;2.90;99.90;;;;;;5085730;28;20072;-45
2023/12/27 00:06:53;;;;;;;14.45;5.10;;;2.90;99.90;;;;;;5079650;28;20497;-46
2023/12/27 00:09:18;;;;;;;16.17;5.90;;;2.90;99.90;;;;;;5080482;28;20040;-45
2023/12/27 00:11:44;;;;;;;17.48;6.35;;;3.00;99.90;;;;;;5079181;28;20101;-45
2023/12/27 00:14:10;;;;;;;17.15;5.47;;;2.90;99.90;;;;;;5078567;28;20032;-44
2023/12/27 00:16:35;;;;;;;12.90;5.63;;;2.80;99.90;;;;;;5078801;28;20032;-45
2023/12/27 00:19:01;;;;;;;17.90;5.32;;;2.90;99.90;;;;;;5081160;28;20439;-44
2023/12/27 00:21:26;;;;;;;11.35;5.85;;;2.80;99.90;;;;;;5077295;28;20040;-45
2023/12/27 00:23:52;;;;;;;17.65;5.75;;;2.90;99.90;;;;;;5078430;28;20085;-44
2023/12/27 00:26:17;;;;;;;12.38;5.57;;;2.80;99.90;;;;;;5066118;28;20036;-46
2023/12/27 00:28:43;;;;;;;13.35;5.88;;;2.70;99.90;;;;;;5081006;28;20033;-46
2023/12/27 00:31:09;;;;;;;12.55;5.30;;;2.70;99.90;;;;;;5085133;28;20039;-47
2023/12/27 00:33:34;;;;;;;13.65;5.50;;;2.70;99.90;;;;;;5079952;28;20063;-45
2023/12/27 00:36:00;;;;;;;12.75;5.43;;;2.60;99.90;;;;;;5083125;28;20040;-46
2023/12/27 00:38:25;;;;;;;16.23;5.63;;;2.60;99.90;;;;;;5078824;28;20056;-45
2023/12/27 00:40:51;;;;;;;13.23;5.38;;;2.60;99.90;;;;;;5078780;28;20638;-45
2023/12/27 00:43:17;;;;;;;12.93;5.53;;;2.60;99.90;;;;;;5079967;28;20117;-46
2023/12/27 00:45:43;;;;;;;16.88;5.28;;;2.50;99.90;;;;;;5079526;28;20028;-45
2023/12/27 00:48:09;;;;;;;10.48;5.30;;;2.50;99.90;;;;;;5086868;28;20040;-46
2023/12/27 00:50:34;;;;;;;12.02;5.18;;;2.40;99.90;;;;;;5087262;28;20042;-43
2023/12/27 00:53:00;;;;;;;11.75;5.47;;;2.40;99.90;;;;;;5084324;28;20040;-44
2023/12/27 00:55:25;;;;;;;13.50;5.40;;;2.30;99.90;;;;;;5078079;28;20587;-44
2023/12/27 00:57:51;;;;;;;10.02;5.50;;;2.40;99.90;;;;;;5079233;28;20052;-45
2023/12/27 01:00:17;;;;;;;11.68;5.55;;;2.20;99.90;;;;;;5082593;28;20142;-44
2023/12/27 01:02:42;;;;;;;18.42;5.82;;;2.30;99.90;;;;;;5078495;28;20052;-44
2023/12/27 01:05:08;;;;;;;19.05;6.28;;;2.30;99.90;;;;;;5082114;28;20127;-44
2023/12/27 01:07:34;;;;;;;12.35;5.93;;;2.30;99.90;;;;;;5081382;28;20040;-46
2023/12/27 01:10:00;;;;;;;15.10;6.10;;;2.20;99.90;;;;;;5091752;28;20507;-45
2023/12/27 01:12:25;;;;;;;15.82;6.57;;;2.20;99.90;;;;;;5087222;28;20075;-43
2023/12/27 01:14:51;;;;;;;13.98;6.30;;;2.20;99.90;;;;;;5085898;28;20366;-46
2023/12/27 01:17:16;;;;;;;10.70;6.60;;;2.20;99.90;;;;;;5086182;28;20032;-44
2023/12/27 01:19:42;;;;;;;14.82;6.63;;;2.20;99.90;;;;;;5085863;28;20055;-44
2023/12/27 01:22:08;;;;;;;15.40;6.60;;;2.20;99.90;;;;;;5085232;28;20044;-45
2023/12/27 01:24:33;;;;;;;15.85;6.68;;;2.10;99.90;;;;;;5087683;28;20036;-46
2023/12/27 01:26:59;;;;;;;14.18;6.63;;;2.00;99.90;;;;;;5087674;28;20040;-45
2023/12/27 01:29:24;;;;;;;14.00;6.80;;;2.00;99.90;;;;;;5064133;28;20036;-44
2023/12/27 01:31:50;;;;;;;11.98;6.70;;;2.10;99.90;;;;;;5090588;28;20492;-45
2023/12/27 01:34:16;;;;;;;14.38;6.03;;;2.00;99.90;;;;;;5087657;28;20593;-46
2023/12/27 01:36:41;;;;;;;9.55;5.75;;;1.90;99.90;;;;;;5089484;28;20190;-45
2023/12/27 01:39:08;;;;;;;13.18;6.63;;;1.90;99.90;;;;;;5084103;28;20623;-45
2023/12/27 01:41:33;;;;;;;11.45;6.07;;;1.90;99.90;;;;;;5084362;28;20039;-43
2023/12/27 01:43:59;;;;;;;13.98;6.03;;;1.90;99.90;;;;;;5085319;28;20093;-43
2023/12/27 01:46:26;;;;;;;11.48;6.13;;;1.90;99.90;;;;;;5087406;28;20032;-45
2023/12/27 01:48:51;;;;;;;13.45;6.25;;;1.90;99.90;;;;;;5086556;28;20081;-44
2023/12/27 01:51:18;;;;;;;13.80;5.95;;;1.80;99.90;;;;;;5086281;28;20109;-44
2023/12/27 01:53:44;;;;;;;8.57;5.30;;;1.90;99.90;;;;;;5084556;28;20050;-45
2023/12/27 01:56:09;;;;;;;12.60;6.05;;;1.90;99.90;;;;;;5084502;28;20487;-44
2023/12/27 01:58:35;;;;;;;8.73;5.38;;;1.90;99.90;;;;;;5087738;28;20524;-44
2023/12/27 02:01:01;;;;;;;12.18;6.45;;;;;;;;;;5084685;28;20477;-46
2023/12/27 02:03:27;;;;;;;11.25;5.75;;;1.70;99.90;;;;;;5085466;28;20370;-45
2023/12/27 02:05:56;;;;;;;13.60;6.22;;;1.60;99.90;;;;;;5084325;28;20036;-45
2023/12/27 02:08:22;;;;;;;10.07;6.22;;;;;;;;;;5084125;28;20444;-45
2023/12/27 02:10:48;;;;;;;9.38;5.55;;;;;;;;;;5084379;28;20036;-44
2023/12/27 02:13:14;;;;;;;9.85;5.95;;;;;;;;;;5087690;28;20137;-46
2023/12/27 02:15:40;;;;;;;9.63;5.18;;;1.60;99.90;;;;;;5081622;28;20049;-45
2023/12/27 02:18:09;;;;;;;9.02;4.93;;;1.50;99.90;;;;;;5084225;28;20459;-44
2023/12/27 02:20:35;;;;;;;10.05;4.72;;;1.50;99.90;;;;;;5084100;28;20054;-44
2023/12/27 02:23:06;;;;;;;9.75;5.65;;;1.50;99.90;;;;;;5085872;28;20032;-44
2023/12/27 02:25:32;;;;;;;11.50;5.70;;;1.40;99.90;;;;;;5084916;28;20056;-44
2023/12/27 02:27:58;;;;;;;9.10;5.30;;;1.50;99.90;;;;;;5082851;28;20037;-44
2023/12/27 02:30:23;;;;;;;10.73;4.85;;;1.40;99.90;;;;;;5085236;28;20051;-44
2023/12/27 02:32:50;;;;;;;11.45;5.07;;;1.40;99.90;;;;;;5083640;28;20466;-45
2023/12/27 02:35:17;;;;;;;11.18;5.50;;;1.40;99.90;;;;;;5085644;28;20179;-44
2023/12/27 02:37:42;;;;;;;11.52;5.57;;;1.40;99.90;;;;;;5083270;28;20490;-44
2023/12/27 02:40:09;;;;;;;10.35;5.25;;;1.40;99.90;;;;;;5089343;28;20102;-48
2023/12/27 02:42:36;;;;;;;11.55;6.25;;;1.40;99.90;;;;;;5086158;28;20189;-46
2023/12/27 02:45:02;;;;;;;15.55;7.00;;;1.40;99.90;;;;;;5081053;28;20079;-48
2023/12/27 02:47:27;;;;;;;18.77;6.88;;;1.40;99.90;;;;;;5084407;28;20516;-46
2023/12/27 02:49:53;;;;;;;10.07;6.65;;;1.60;99.90;;;;;;5088342;28;20050;-44
2023/12/27 02:52:18;;;;;;;20.25;8.20;;;1.60;99.90;;;;;;5086173;28;20055;-44
2023/12/27 02:54:44;;;;;;;16.38;7.78;;;1.60;99.90;;;;;;5079082;28;21535;-45
2023/12/27 02:57:09;;;;;;;16.02;7.72;;;1.70;99.90;;;;;;5085278;28;20462;-43
2023/12/27 02:59:35;;;;;;;10.68;6.68;;;1.90;99.90;;;;;;5085042;28;20091;-44
2023/12/27 03:02:00;;;;;;;13.25;7.43;;;1.80;99.90;;;;;;5085558;28;20043;-44
2023/12/27 03:04:26;;;;;;;15.23;7.55;;;1.80;99.90;;;;;;5083501;28;20047;-45
2023/12/27 03:06:52;;;;;;;11.30;7.35;;;2.00;99.90;;;;;;5082668;28;20094;-45
2023/12/27 03:09:17;;;;;;;12.18;7.03;;;1.80;99.90;;;;;;5080193;28;20040;-44
2023/12/27 03:11:43;;;;;;;14.38;7.47;;;2.00;99.90;;;;;;5083130;28;20452;-45
2023/12/27 03:14:09;;;;;;;12.52;7.05;;;1.90;99.90;;;;;;5083769;28;20573;-45
2023/12/27 03:16:35;;;;;;;12.95;7.10;;;2.00;99.90;;;;;;5083620;28;20047;-45
2023/12/27 03:19:00;;;;;;;13.43;7.55;;;2.00;99.90;;;;;;5067387;28;20040;-44
2023/12/27 03:21:26;;;;;;;9.88;7.78;;;2.10;99.90;;;;;;5083289;28;20101;-44
2023/12/27 03:23:52;;;;;;;12.45;8.13;;;2.10;99.90;;;;;;5083453;28;20131;-45
2023/12/27 03:26:18;;;;;;;17.40;8.25;;;2.10;99.90;;;;;;5082070;28;20119;-44
2023/12/27 03:28:43;;;;;;;13.43;8.43;;;2.10;99.90;;;;;;5083484;28;20043;-44
2023/12/27 03:31:09;;;;;;;13.55;8.38;;;2.10;99.90;;;;;;5084225;28;20036;-44
2023/12/27 03:33:34;;;;;;;14.93;8.48;;;2.00;99.90;;;;;;5086620;28;20444;-44
2023/12/27 03:36:00;;;;;;;12.20;8.13;;;2.10;99.90;;;;;;5084668;28;20470;-44
2023/12/27 03:38:26;;;;;;;13.32;8.20;;;1.90;99.90;;;;;;5081352;28;20413;-47
2023/12/27 03:40:52;;;;;;;13.32;7.50;;;2.00;99.90;;;;;;5081013;28;20082;-44
2023/12/27 03:43:17;;;;;;;15.38;8.27;;;1.90;99.90;;;;;;5084400;28;20443;-44
2023/12/27 03:45:45;;;;;;;12.73;7.85;;;1.90;99.90;;;;;;5087593;28;20043;-45
2023/12/27 03:48:11;;;;;;;15.33;7.80;;;1.90;99.90;;;;;;5088120;28;20059;-44
2023/12/27 03:50:36;;;;;;;13.88;7.65;;;1.80;99.90;;;;;;5086923;28;20040;-44
2023/12/27 03:53:02;;;;;;;15.82;8.40;;;1.90;99.90;;;;;;5084215;28;20040;-46
2023/12/27 03:55:28;;;;;;;12.13;7.68;;;2.00;99.90;;;;;;5080876;28;20477;-45
2023/12/27 03:57:53;;;;;;;15.55;8.95;;;1.90;99.90;;;;;;5082347;28;20400;-46
2023/12/27 04:00:20;;;;;;;14.57;9.38;;;2.00;99.90;;;;;;5080588;28;20044;-44
2023/12/27 04:02:46;;;;;;;13.55;8.90;;;2.00;99.90;;;;;;5082089;28;20048;-45
2023/12/27 04:05:13;;;;;;;14.45;9.60;;;2.10;99.90;;;;;;5082251;28;20358;-45
2023/12/27 04:07:38;;;;;;;11.60;8.90;;;2.10;99.90;;;;;;5078837;28;20047;-46
2023/12/27 04:10:05;;;;;;;14.15;8.55;;;2.20;99.90;;;;;;5085174;28;20438;-44
2023/12/27 04:12:31;;;;;;;11.73;7.95;;;2.10;99.90;;;;;;5080533;28;20032;-45
2023/12/27 04:14:56;;;;;;;14.18;7.85;;;1.90;99.90;;;;;;5080792;28;20082;-44
2023/12/27 04:17:22;;;;;;;9.35;7.28;;;2.00;99.90;;;;;;5081236;28;20047;-45
2023/12/27 04:19:48;;;;;;;13.60;8.43;;;1.90;99.90;;;;;;5081387;28;20043;-44
2023/12/27 04:22:13;;;;;;;12.13;8.20;;;2.00;99.90;;;;;;5083131;28;20032;-44
2023/12/27 04:24:39;;;;;;;16.23;9.00;;;1.80;99.90;;;;;;5081174;28;20323;-44
2023/12/27 04:27:05;;;;;;;14.35;8.20;;;1.80;99.90;;;;;;5084117;28;20101;-45
2023/12/27 04:29:30;;;;;;;11.80;8.65;;;1.90;99.90;;;;;;5075168;28;20565;-45
2023/12/27 04:31:56;;;;;;;16.23;9.52;;;2.00;99.90;;;;;;5080028;28;20477;-45
2023/12/27 04:34:22;;;;;;;12.93;9.07;;;2.00;99.90;;;;;;5078875;28;20131;-45
2023/12/27 04:36:47;;;;;;;18.67;10.00;;;2.00;99.90;;;;;;5083855;28;20043;-45
2023/12/27 04:39:13;;;;;;;13.63;9.00;;;2.00;99.90;;;;;;5081116;28;20060;-44
2023/12/27 04:41:40;;;;;;;17.50;9.43;;;2.00;99.90;;;;;;5083379;28;20404;-45
2023/12/27 04:44:05;;;;;;;17.73;9.15;;;1.90;99.90;;;;;;5080828;28;20039;-46
2023/12/27 04:46:31;;;;;;;13.40;8.75;;;1.90;99.90;;;;;;5090024;28;20319;-45
2023/12/27 04:48:57;;;;;;;17.13;9.88;;;2.00;99.90;;;;;;5087869;28;20044;-43
2023/12/27 04:51:22;;;;;;;14.85;8.70;;;2.00;99.90;;;;;;5086928;28;20063;-47
2023/12/27 04:53:48;;;;;;;11.77;9.02;;;2.00;99.90;;;;;;5089498;28;20036;-48
2023/12/27 04:56:16;;;;;;;16.10;9.32;;;2.00;99.90;;;;;;5087797;28;20044;-45
2023/12/27 04:58:41;;;;;;;;;;;1.90;99.90;;;;;;5083795;28;20043;-45
2023/12/27 05:01:07;;;;;;;14.10;9.10;;;2.10;99.90;;;;;;5085121;28;19930;-45
2023/12/27 05:03:35;;;;;;;15.23;10.30;;;2.00;99.90;;;;;;5087520;28;20047;-45
2023/12/27 05:06:12;;;;;;;18.50;10.65;;;2.00;99.90;;;;;;5069098;28;20068;-44
2023/12/27 05:08:39;;;;;;;17.17;10.50;;;2.10;99.90;;;;;;5085143;28;20040;-46
2023/12/27 05:11:18;;;;;;;17.17;10.73;;;2.10;99.90;;;;;;5082351;28;20325;-46
2023/12/27 05:13:43;;;;;;;20.65;11.15;;;2.10;99.90;;;;;;5083589;28;20064;-45
2023/12/27 05:16:14;;;;;;;17.13;10.90;;;2.20;99.90;;;;;;5084485;28;20044;-47
2023/12/27 05:18:40;;;;;;;16.30;10.80;;;2.20;99.90;;;;;;5087034;28;20043;-45
2023/12/27 05:21:11;;;;;;;18.85;10.55;;;2.10;99.90;;;;;;5088596;28;20215;-44
2023/12/27 05:23:36;;;;;;;13.65;10.05;;;2.20;99.90;;;;;;5089298;28;20041;-44
2023/12/27 05:26:03;;;;;;;21.33;10.80;;;2.20;99.90;;;;;;5086010;28;20032;-46
2023/12/27 05:28:29;;;;;;;15.10;11.27;;;2.20;99.90;;;;;;5085134;28;20040;-44
2023/12/27 05:30:55;;;;;;;19.98;11.13;;;2.20;99.90;;;;;;5082766;28;20621;-45
2023/12/27 05:33:20;;;;;;;18.50;11.15;;;2.20;99.90;;;;;;5084232;28;21500;-48
2023/12/27 05:35:46;;;;;;;21.35;11.48;;;2.40;99.90;;;;;;5083025;28;20390;-45
2023/12/27 05:38:12;;;;;;;22.05;11.43;;;2.20;99.90;;;;;;5078658;28;20055;-43
2023/12/27 05:40:37;;;;;;;17.05;10.63;;;2.30;99.90;;;;;;5086676;28;20028;-44
2023/12/27 05:43:04;;;;;;;17.38;11.23;;;2.30;99.90;;;;;;5081506;28;20036;-44
2023/12/27 05:45:30;;;;;;;18.75;10.13;;;2.40;99.90;;;;;;5085257;28;20036;-44
2023/12/27 05:47:55;;;;;;;15.48;9.52;;;2.20;99.90;;;;;;5081953;28;20067;-44
2023/12/27 05:50:21;;;;;;;19.83;10.93;;;2.40;99.90;;;;;;5084083;28;20405;-43
2023/12/27 05:52:47;;;;;;;17.20;9.82;;;2.40;99.90;;;;;;5082038;28;20793;-44
2023/12/27 05:55:13;;;;;;;16.20;10.05;;;2.40;99.90;;;;;;5087887;28;20032;-45
2023/12/27 05:57:39;;;;;;;20.48;9.80;;;2.40;99.90;;;;;;5088207;28;20068;-44
2023/12/27 06:00:06;;;;;;;20.73;11.18;;;2.50;99.90;;;;;;5084193;28;20129;-44
2023/12/27 06:02:32;;;;;;;15.98;11.07;;;2.60;99.90;;;;;;5084882;28;20054;-46
2023/12/27 06:04:58;;;;;;;18.05;10.65;;;2.60;99.90;;;;;;5082718;28;20052;-45
2023/12/27 06:07:24;;;;;;;19.90;10.45;;;2.50;99.90;;;;;;5083576;28;20052;-45
2023/12/27 06:09:50;;;;;;;24.55;11.35;;;2.50;99.90;;;;;;5081383;28;20204;-46
2023/12/27 06:12:15;;;;;;;26.20;11.65;;;2.70;99.90;;;;;;5083029;28;20048;-45
2023/12/27 06:14:41;;;;;;;23.88;11.25;;;2.60;99.90;;;;;;5084594;28;20586;-46
2023/12/27 06:17:07;;;;;;;21.90;11.05;;;2.70;99.90;;;;;;5086092;28;20043;-45
2023/12/27 06:19:35;;;;;;;25.95;12.45;;;2.70;99.90;;;;;;5082622;28;20051;-45
2023/12/27 06:22:00;;;;;;;;;;;2.90;99.90;;;;;;5085920;28;20596;-46
2023/12/27 06:24:26;;;;;;;21.98;11.18;;;3.00;99.90;;;;;;5086388;28;20011;-45
2023/12/27 06:26:52;;;;;;;19.38;10.75;;;3.00;99.90;;;;;;5085123;28;20129;-44
2023/12/27 06:29:18;;;;;;;24.80;12.00;;;3.00;99.90;;;;;;5065990;28;20477;-46
2023/12/27 06:31:43;;;;;;;24.88;12.73;;;3.00;99.90;;;;;;5087882;28;20044;-44
2023/12/27 06:34:09;;;;;;;22.27;12.68;;;3.00;99.90;;;;;;5088037;28;20044;-44
2023/12/27 06:36:35;;;;;;;22.42;12.18;;;3.00;99.90;;;;;;5081589;28;20032;-46
2023/12/27 06:39:00;;;;;;;21.65;12.02;;;3.10;99.90;;;;;;5043767;28;1056087;-45
2023/12/27 06:41:27;;;;;;;28.20;14.30;;;3.10;99.90;;;;;;5081091;28;20093;-44
2023/12/27 06:43:53;;;;;;;25.95;13.63;;;3.00;99.90;;;;;;5082133;28;20512;-45
2023/12/27 06:46:19;;;;;;;30.75;14.45;;;3.20;99.90;;;;;;5080681;28;20051;-44
2023/12/27 06:48:45;;;;;;;23.83;14.98;;;3.30;99.90;;;;;;5081741;28;20044;-45
2023/12/27 06:51:13;;;;;;;31.45;15.88;;;3.40;99.90;;;;;;5082420;28;20040;-45
2023/12/27 06:53:39;;;;;;;28.13;14.38;;;3.30;99.90;;;;;;5081456;28;20151;-47
2023/12/27 06:56:05;;;;;;;32.15;17.27;;;3.30;99.90;;;;;;5081182;28;20048;-46
2023/12/27 06:58:31;;;;;;;22.27;14.93;;;3.30;99.90;;;;;;5080136;28;20067;-45
2023/12/27 07:00:57;;;;;;;29.42;16.38;;;3.30;99.90;;;;;;5082160;28;20438;-45
2023/12/27 07:03:24;;;;;;;27.42;15.57;;;3.40;99.90;;;;;;5085967;28;20062;-45
2023/12/27 07:05:50;;;;;;;32.55;16.50;;;3.40;99.90;;;;;;5082914;28;20358;-48
2023/12/27 07:08:15;;;;;;;31.95;15.93;;;3.50;99.90;;;;;;5085597;28;20055;-47
2023/12/27 07:10:41;;;;;;;28.50;14.60;;;3.60;99.90;;;;;;5086728;28;20028;-44
2023/12/27 07:13:08;;;;;;;31.23;14.88;;;3.60;99.90;;;;;;5087522;28;20584;-45
2023/12/27 07:15:34;;;;;;;29.97;13.83;;;3.60;99.90;;;;;;5085542;28;20051;-45
2023/12/27 07:18:00;;;;;;;27.98;13.32;;;3.60;99.90;;;;;;5088665;28;20113;-45
2023/12/27 07:20:26;;;;;;;25.38;11.38;;;3.70;99.90;;;;;;5079702;28;20062;-45
2023/12/27 07:22:51;;;;;;;28.27;12.43;;;3.70;99.90;;;;;;5086470;28;20040;-45
2023/12/27 07:25:17;;;;;;;24.35;11.43;;;3.70;99.90;;;;;;5084763;28;20078;-44
2023/12/27 07:27:43;;;;;;;23.63;11.82;;;3.80;99.90;;;;;;5080269;28;20051;-46
2023/12/27 07:30:09;;;;;;;22.15;11.70;;;3.80;99.90;;;;;;5084873;28;20566;-45
2023/12/27 07:32:34;;;;;;;29.08;12.05;;;3.90;99.90;;;;;;5083809;28;20040;-45
2023/12/27 07:35:00;;;;;;;26.75;12.68;;;3.90;99.90;;;;;;5087494;28;20048;-44
2023/12/27 07:37:26;;;;;;;21.77;12.27;;;3.80;99.90;;;;;;5082582;28;20040;-44
2023/12/27 07:39:53;;;;;;;32.97;12.70;;;3.90;99.90;;;;;;5083925;28;20094;-45
2023/12/27 07:42:19;;;;;;;26.25;13.68;;;4.00;99.90;;;;;;5085587;28;20069;-47
2023/12/27 07:44:44;;;;;;;23.05;12.52;;;4.00;99.90;;;;;;5080846;28;20040;-47
2023/12/27 07:47:10;;;;;;;25.20;12.45;;;3.80;99.90;;;;;;5083906;28;20611;-45
2023/12/27 07:49:36;;;;;;;24.23;13.20;;;3.90;99.90;;;;;;5089258;28;20492;-46
2023/12/27 07:52:02;;;;;;;25.35;13.70;;;4.00;99.90;;;;;;5091472;28;20457;-45
2023/12/27 07:54:28;;;;;;;25.42;13.55;;;4.00;99.90;;;;;;5090666;28;20054;-45
2023/12/27 07:56:53;;;;;;;22.48;12.90;;;3.80;99.90;;;;;;5088754;28;20032;-45
2023/12/27 07:59:19;;;;;;;24.05;13.43;;;4.00;99.90;;;;;;5071607;28;20490;-44
2023/12/27 08:01:45;;;;;;;20.13;13.15;;;3.90;99.90;;;;;;5086112;28;20044;-45
2023/12/27 08:04:11;;;;;;;23.88;13.70;;;3.80;99.90;;;;;;5090370;28;20094;-45
2023/12/27 08:06:37;;;;;;;25.02;12.25;;;4.00;99.90;;;;;;5089997;28;20448;-45
2023/12/27 08:09:02;;;;;;;24.42;12.40;;;3.90;99.90;;;;;;5092394;28;20040;-44
2023/12/27 08:11:28;;;;;;;24.35;12.15;;;4.00;99.90;;;;;;5090961;28;20036;-47
2023/12/27 08:13:53;;;;;;;19.92;12.50;;;3.90;99.90;;;;;;5090464;28;20028;-45
2023/12/27 08:16:19;;;;;;;23.40;13.10;;;4.00;99.90;;;;;;5090922;28;20068;-47
2023/12/27 08:18:45;;;;;;;18.73;12.80;;;3.90;99.90;;;;;;5085299;28;20036;-45
2023/12/27 08:21:10;;;;;;;25.77;13.27;;;4.00;99.90;;;;;;5090215;28;20473;-46
2023/12/27 08:23:37;;;;;;;24.55;14.00;;;3.90;99.90;;;;;;5091288;28;20119;-45
2023/12/27 08:26:06;;;;;;;25.92;14.45;;;4.00;99.90;;;;;;5090045;28;20048;-45
2023/12/27 08:28:33;;;;;;;22.73;14.43;;;3.90;99.90;;;;;;5089478;28;20032;-45
2023/12/27 08:30:59;;;;;;;24.40;14.47;;;3.90;99.90;;;;;;5089443;28;20493;-45
2023/12/27 08:33:25;;;;;;;29.60;15.48;;;4.00;99.90;;;;;;5088455;28;20936;-45
2023/12/27 08:35:51;;;;;;;23.00;14.32;;;4.00;99.90;;;;;;5090170;28;20074;-45
2023/12/27 08:38:16;;;;;;;27.73;14.55;;;4.10;99.90;;;;;;5088772;28;20041;-45
2023/12/27 08:40:42;;;;;;;21.70;12.68;;;4.10;99.90;;;;;;5090653;28;20123;-45
2023/12/27 08:43:07;;;;;;;31.00;15.65;;;4.10;99.90;;;;;;5086941;28;20058;-48
2023/12/27 08:45:34;;;;;;;23.77;15.30;;;4.10;99.90;;;;;;5090542;28;20127;-46
2023/12/27 08:48:00;;;;;;;23.08;15.65;;;4.20;99.90;;;;;;5088446;28;20036;-45
2023/12/27 08:50:25;;;;;;;23.70;14.57;;;4.10;99.90;;;;;;5090174;28;20044;-44
2023/12/27 08:52:51;;;;;;;27.83;15.82;;;4.10;99.90;;;;;;5089576;28;20435;-45
2023/12/27 08:55:16;;;;;;;26.60;16.00;;;4.20;99.90;;;;;;5075883;28;20036;-45
2023/12/27 08:57:42;;;;;;;27.10;16.27;;;4.30;99.90;;;;;;5089894;28;20039;-45
2023/12/27 09:00:10;;;;;;;30.27;17.02;;;4.20;99.90;;;;;;5087783;28;20037;-46
2023/12/27 09:02:37;;;;;;;22.45;16.23;;;4.20;99.90;;;;;;5090149;28;20048;-45
2023/12/27 09:05:04;;;;;;;27.95;15.68;;;4.40;99.90;;;;;;5087332;28;20507;-44
2023/12/27 09:07:31;;;;;;;27.00;16.25;;;4.40;99.90;;;;;;5089279;28;20047;-45
2023/12/27 09:09:57;;;;;;;24.35;15.68;;;4.40;99.90;;;;;;5089123;28;20092;-45
2023/12/27 09:12:22;;;;;;;23.55;16.08;;;4.40;99.90;;;;;;5089768;28;20649;-45
2023/12/27 09:14:48;;;;;;;24.85;15.82;;;4.40;99.90;;;;;;5090764;28;20032;-46
2023/12/27 09:17:15;;;;;;;31.20;15.85;;;4.50;99.90;;;;;;5092733;28;20036;-46
2023/12/27 09:19:41;;;;;;;19.70;12.47;;;4.50;99.90;;;;;;5090944;28;20044;-45
2023/12/27 09:22:07;;;;;;;26.55;15.85;;;4.50;99.90;;;;;;5087486;28;20040;-44
2023/12/27 09:24:33;;;;;;;29.58;15.70;;;4.60;99.90;;;;;;5069237;28;20044;-44
2023/12/27 09:26:59;;;;;;;25.63;15.75;;;4.70;99.90;;;;;;5089729;28;20115;-47
2023/12/27 09:29:24;;;;;;;23.77;14.95;;;4.60;99.90;;;;;;5091191;28;20051;-45
2023/12/27 09:31:50;;;;;;;30.45;15.98;;;4.70;99.90;;;;;;5093079;28;20677;-45
2023/12/27 09:34:16;;;;;;;24.00;15.55;;;4.70;99.90;;;;;;5094150;28;20081;-45
2023/12/27 09:36:41;;;;;;;23.90;15.85;;;4.70;99.90;;;;;;5092286;28;20078;-47
2023/12/27 09:39:11;;;;;;;23.55;15.35;;;4.80;99.90;;;;;;5093475;28;20044;-46
2023/12/27 09:41:37;;;;;;;25.95;16.40;;;4.70;99.90;;;;;;5090175;28;20139;-45
2023/12/27 09:44:06;;;;;;;28.70;16.27;;;4.80;99.90;;;;;;5091068;28;20119;-46
2023/12/27 09:46:33;;;;;;;23.63;14.93;;;4.80;99.90;;;;;;5093327;28;20386;-45
2023/12/27 09:48:59;;;;;;;28.00;16.00;;;4.90;99.90;;;;;;5092457;28;20520;-45
2023/12/27 09:51:25;;;;;;;28.38;16.35;;;4.80;99.90;;;;;;5093903;28;20040;-46
2023/12/27 09:53:51;;;;;;;25.33;15.45;;;4.90;99.90;;;;;;5094617;28;20373;-45
2023/12/27 09:56:18;;;;;;;25.13;13.90;;;4.90;99.90;;;;;;5093477;28;20040;-46
2023/12/27 09:58:47;;;;;;;25.70;14.50;;;4.90;99.90;;;;;;5093065;28;20430;-46
2023/12/27 10:01:13;;;;;;;22.02;14.43;;;4.90;99.90;;;;;;5091766;28;20060;-45
2023/12/27 10:03:43;;;;;;;23.17;13.20;;;5.00;99.90;;;;;;5093108;28;20055;-45
2023/12/27 10:06:32;;;;;;;27.55;14.18;;;5.00;99.90;;;;;;5092731;28;20167;-45
2023/12/27 10:08:58;;;;;;;25.05;14.00;;;5.00;99.90;;;;;;5091184;28;20036;-44
2023/12/27 10:11:24;;;;;;;23.08;13.50;;;5.00;99.90;;;;;;5092609;28;20040;-45
2023/12/27 10:13:50;;;;;;;28.05;14.45;;;5.00;99.90;;;;;;5092890;28;20059;-45
2023/12/27 10:16:17;;;;;;;28.63;14.27;;;5.00;99.90;;;;;;5090943;28;20033;-45
2023/12/27 10:18:48;;;;;;;23.83;14.13;;;5.00;99.90;;;;;;5090335;28;20047;-45
2023/12/27 10:21:16;;;;;;;25.00;14.35;;;5.00;99.90;;;;;;5097919;28;20110;-45
2023/12/27 10:23:42;;;;;;;22.15;14.80;;;5.00;99.90;;;;;;5092425;28;20048;-45
2023/12/27 10:26:08;;;;;;;24.67;13.90;;;5.00;99.90;;;;;;5090922;28;20101;-45
2023/12/27 10:28:33;;;;;;;23.92;14.38;;;5.00;99.90;;;;;;5091774;28;20052;-45
2023/12/27 10:30:59;;;;;;;26.17;15.00;;;5.00;99.90;;;;;;5091190;28;20048;-45
2023/12/27 10:33:24;;;;;;;21.30;13.85;;;5.00;99.90;;;;;;5087614;28;20043;-45
2023/12/27 10:35:50;;;;;;;24.17;13.80;;;5.10;99.90;;;;;;5088358;28;20131;-45
2023/12/27 10:38:16;;;;;;;25.77;14.98;;;5.00;99.90;;;;;;5090135;28;20504;-45
2023/12/27 10:40:42;;;;;;;25.73;15.35;;;5.00;99.90;;;;;;5088930;28;20052;-44
2023/12/27 10:43:08;;;;;;;28.60;15.88;;;5.10;99.90;;;;;;5090787;28;20077;-46
2023/12/27 10:45:35;;;;;;;26.80;15.35;;;5.10;99.90;;;;;;5086545;28;20378;-47
2023/12/27 10:48:06;;;;;;;28.23;15.80;;;5.10;99.90;;;;;;5091316;28;20075;-45
2023/12/27 10:50:33;;;;;;;26.92;16.48;;;5.10;99.90;;;;;;5088315;28;20036;-46
2023/12/27 10:53:06;;;;;;;27.08;14.70;;;5.20;99.90;;;;;;5089397;28;20097;-45
2023/12/27 10:55:33;;;;;;;25.60;15.65;;;5.20;99.90;;;;;;5089432;28;20709;-46
2023/12/27 10:58:01;;;;;;;28.57;16.10;;;5.20;99.90;;;;;;5085869;28;20562;-45
2023/12/27 11:00:28;;;;;;;24.63;15.90;;;5.20;99.90;;;;;;5090124;28;20048;-46
2023/12/27 11:02:55;;;;;;;25.00;15.77;;;5.30;99.90;;;;;;5090244;28;20036;-46
2023/12/27 11:05:22;;;;;;;26.33;14.95;;;5.20;99.90;;;;;;5089635;28;20036;-45
2023/12/27 11:07:50;;;;;;;24.35;15.20;;;5.20;99.90;;;;;;5090874;28;20445;-46
2023/12/27 11:10:17;;;;;;;29.75;15.13;;;5.30;99.90;;;;;;5091793;28;20104;-46
2023/12/27 11:12:46;;;;;;;27.98;15.38;;;5.30;99.90;;;;;;5091932;28;20043;-47
2023/12/27 11:15:13;;;;;;;30.10;16.83;;;5.30;99.90;;;;;;5090600;28;20047;-45
2023/12/27 11:17:40;;;;;;;28.15;16.88;;;5.30;99.90;;;;;;5090237;28;20378;-48
2023/12/27 11:20:11;;;;;;;30.83;16.27;;;5.30;99.90;;;;;;5090197;28;20043;-46
2023/12/27 11:22:38;;;;;;;24.73;16.10;;;5.40;99.90;;;;;;5092204;28;20551;-46
2023/12/27 11:25:05;;;;;;;25.33;15.50;;;5.40;99.90;;;;;;5089840;28;20127;-46
2023/12/27 11:27:31;;;;;;;26.08;15.95;;;5.30;99.90;;;;;;5096882;28;20044;-45
2023/12/27 11:29:57;;;;;;;24.95;16.45;;;5.30;99.90;;;;;;5091779;28;20046;-47
2023/12/27 11:32:25;;;;;;;25.90;15.90;;;5.30;99.90;;;;;;5088332;28;20040;-44
2023/12/27 11:34:52;;;;;;;25.67;16.77;;;5.30;99.90;;;;;;5089940;28;20126;-46
2023/12/27 11:37:18;;;;;;;25.33;16.67;;;5.40;99.90;;;;;;5088955;28;20044;-48
2023/12/27 11:39:50;;;;;;;25.80;15.98;;;5.50;99.90;;;;;;5089758;28;20048;-45
2023/12/27 11:42:16;;;;;;;24.08;16.92;;;5.40;99.90;;;;;;5087820;28;20122;-46
2023/12/27 11:44:47;;;;;;;22.65;16.63;;;5.50;99.90;;;;;;5088740;28;20115;-45
2023/12/27 11:47:15;;;;;;;24.70;15.98;;;5.40;99.90;;;;;;5089841;28;20064;-46
2023/12/27 11:49:41;;;;;;;24.95;16.27;;;5.50;99.90;;;;;;5089847;28;20039;-45
2023/12/27 11:52:07;;;;;;;26.60;17.92;;;5.60;99.90;;;;;;5073610;28;20040;-46
2023/12/27 11:54:33;;;;;;;25.42;16.17;;;5.60;99.90;;;;;;5090378;28;20063;-45
2023/12/27 11:56:59;;;;;;;21.65;15.60;;;5.70;99.90;;;;;;5091172;28;20119;-44
2023/12/27 11:59:28;;;;;;;23.10;15.48;;;5.60;99.90;;;;;;5090401;28;20131;-45
2023/12/27 12:01:58;;;;;;;23.15;15.30;;;5.70;99.90;;;;;;5086457;28;20109;-45
2023/12/27 12:04:33;;;;;;;23.27;15.30;;;5.70;99.90;;;;;;5089452;28;20036;-45
2023/12/27 12:07:01;;;;;;;23.10;15.10;;;5.70;99.90;;;;;;5088820;28;20055;-45
2023/12/27 12:09:37;;;;;;;27.50;16.25;;;5.80;99.90;;;;;;5090323;28;20323;-46
2023/12/27 12:12:16;;;;;;;22.90;16.42;;;5.80;99.90;;;;;;5074327;28;20055;-45
2023/12/27 12:14:42;;;;;;;22.55;15.52;;;5.90;99.90;;;;;;5088211;28;20040;-46
2023/12/27 12:17:08;;;;;;;20.65;15.55;;;5.80;99.90;;;;;;5089577;28;20388;-45
2023/12/27 12:19:36;;;;;;;22.40;15.85;;;6.00;99.90;;;;;;5090248;28;20063;-46
2023/12/27 12:22:02;;;;;;;24.13;17.23;;;6.00;99.90;;;;;;5089939;28;20589;-45
2023/12/27 12:24:27;;;;;;;23.50;15.88;;;6.10;99.90;;;;;;5089690;28;20912;-46
2023/12/27 12:26:55;;;;;;;23.83;15.70;;;6.00;99.90;;;;;;5090223;28;20115;-45
2023/12/27 12:29:21;;;;;;;24.17;17.02;;;6.20;99.90;;;;;;5090400;28;20044;-46
2023/12/27 12:31:48;;;;;;;24.08;17.83;;;6.10;99.90;;;;;;5093856;28;20032;-46
2023/12/27 12:34:13;;;;;;;21.77;17.83;;;6.10;99.90;;;;;;5088563;28;20509;-47
2023/12/27 12:36:39;;;;;;;21.40;16.80;;;6.20;99.90;;;;;;5076041;28;20048;-47
2023/12/27 12:39:04;;;;;;;26.13;17.70;;;6.20;99.90;;;;;;5089675;28;20057;-46